sensor_id;sensor_type;location;lat;lon;timestamp;pressure;altitude;pressure_sealevel;temperature;humidity
73651;BME280;61944;52.538;6.108;2023-05-20T00:00:02;102460.72;;;13.16;81.12
73651;BME280;61944;52.538;6.108;2023-05-20T00:02:28;102463.41;;;13.12;81.64
73651;BME280;61944;52.538;6.108;2023-05-20T00:04:53;102439.94;;;12.92;82.38
73651;BME280;61944;52.538;6.108;2023-05-20T00:07:18;102457.00;;;13.28;81.00
73651;BME280;61944;52.538;6.108;2023-05-20T00:09:44;102446.56;;;13.00;82.21
73651;BME280;61944;52.538;6.108;2023-05-20T00:12:10;102460.06;;;12.94;83.21
73651;BME280;61944;52.538;6.108;2023-05-20T00:14:35;102443.91;;;12.91;83.03
73651;BME280;61944;52.538;6.108;2023-05-20T00:17:00;102457.06;;;12.75;84.45
73651;BME280;61944;52.538;6.108;2023-05-20T00:19:26;102448.03;;;12.81;83.76
73651;BME280;61944;52.538;6.108;2023-05-20T00:21:51;102456.59;;;13.13;81.67
73651;BME280;61944;52.538;6.108;2023-05-20T00:24:16;102451.81;;;13.14;81.27
73651;BME280;61944;52.538;6.108;2023-05-20T00:26:42;102463.00;;;12.86;83.51
73651;BME280;61944;52.538;6.108;2023-05-20T00:29:07;102437.69;;;12.98;82.39
73651;BME280;61944;52.538;6.108;2023-05-20T00:31:32;102461.09;;;13.02;82.40
73651;BME280;61944;52.538;6.108;2023-05-20T00:33:58;102452.00;;;12.93;83.33
73651;BME280;61944;52.538;6.108;2023-05-20T00:36:23;102449.16;;;12.52;86.69
73651;BME280;61944;52.538;6.108;2023-05-20T00:38:48;102442.19;;;12.74;84.44
73651;BME280;61944;52.538;6.108;2023-05-20T00:41:14;102466.88;;;12.81;84.37
73651;BME280;61944;52.538;6.108;2023-05-20T00:43:39;102459.78;;;12.71;85.54
73651;BME280;61944;52.538;6.108;2023-05-20T00:46:05;102443.13;;;12.78;84.84
73651;BME280;61944;52.538;6.108;2023-05-20T00:48:39;102438.13;;;12.72;84.78
73651;BME280;61944;52.538;6.108;2023-05-20T00:51:05;102435.75;;;12.86;83.87
73651;BME280;61944;52.538;6.108;2023-05-20T00:53:33;102432.84;;;12.70;84.63
73651;BME280;61944;52.538;6.108;2023-05-20T00:55:58;102428.28;;;12.78;84.43
73651;BME280;61944;52.538;6.108;2023-05-20T00:58:24;102446.63;;;12.75;85.02
73651;BME280;61944;52.538;6.108;2023-05-20T01:00:49;102436.59;;;12.62;85.65
73651;BME280;61944;52.538;6.108;2023-05-20T01:03:16;102447.50;;;12.64;85.63
73651;BME280;61944;52.538;6.108;2023-05-20T01:05:41;102440.94;;;12.72;85.13
73651;BME280;61944;52.538;6.108;2023-05-20T01:08:07;102439.72;;;12.85;84.50
73651;BME280;61944;52.538;6.108;2023-05-20T01:10:33;102440.13;;;12.71;84.61
73651;BME280;61944;52.538;6.108;2023-05-20T01:13:04;102422.81;;;12.57;85.47
73651;BME280;61944;52.538;6.108;2023-05-20T01:15:33;102425.75;;;12.48;86.54
73651;BME280;61944;52.538;6.108;2023-05-20T01:18:01;102407.75;;;12.37;86.34
73651;BME280;61944;52.538;6.108;2023-05-20T01:20:30;102420.47;;;12.59;85.23
73651;BME280;61944;52.538;6.108;2023-05-20T01:22:57;102435.47;;;12.51;86.74
73651;BME280;61944;52.538;6.108;2023-05-20T01:25:23;102426.28;;;12.66;84.97
73651;BME280;61944;52.538;6.108;2023-05-20T01:27:51;102427.03;;;12.63;85.77
73651;BME280;61944;52.538;6.108;2023-05-20T01:30:17;102427.19;;;12.17;89.42
73651;BME280;61944;52.538;6.108;2023-05-20T01:32:46;102419.78;;;12.37;88.21
73651;BME280;61944;52.538;6.108;2023-05-20T01:35:13;102422.84;;;12.45;86.38
73651;BME280;61944;52.538;6.108;2023-05-20T01:37:40;102417.88;;;12.54;86.55
73651;BME280;61944;52.538;6.108;2023-05-20T01:40:11;102412.06;;;12.47;86.39
73651;BME280;61944;52.538;6.108;2023-05-20T01:42:38;102417.69;;;12.22;89.21
73651;BME280;61944;52.538;6.108;2023-05-20T01:45:06;102396.88;;;12.23;88.92
73651;BME280;61944;52.538;6.108;2023-05-20T01:47:31;102406.47;;;12.34;87.81
73651;BME280;61944;52.538;6.108;2023-05-20T01:49:56;102403.66;;;12.34;87.95
73651;BME280;61944;52.538;6.108;2023-05-20T01:52:22;102415.34;;;12.24;89.04
73651;BME280;61944;52.538;6.108;2023-05-20T01:54:48;102396.50;;;12.37;87.23
73651;BME280;61944;52.538;6.108;2023-05-20T01:57:19;102398.25;;;12.41;87.22
73651;BME280;61944;52.538;6.108;2023-05-20T01:59:45;102394.28;;;12.43;87.46
73651;BME280;61944;52.538;6.108;2023-05-20T02:02:12;102399.44;;;12.28;88.18
73651;BME280;61944;52.538;6.108;2023-05-20T02:04:37;102405.25;;;12.60;86.14
73651;BME280;61944;52.538;6.108;2023-05-20T02:07:03;102405.75;;;12.37;87.90
73651;BME280;61944;52.538;6.108;2023-05-20T02:09:28;102405.31;;;12.35;88.36
73651;BME280;61944;52.538;6.108;2023-05-20T02:11:53;102401.56;;;12.19;89.61
73651;BME280;61944;52.538;6.108;2023-05-20T02:14:19;102402.72;;;12.30;89.27
73651;BME280;61944;52.538;6.108;2023-05-20T02:16:45;102408.47;;;12.09;90.54
73651;BME280;61944;52.538;6.108;2023-05-20T02:19:10;102398.50;;;12.12;89.30
73651;BME280;61944;52.538;6.108;2023-05-20T02:21:41;102398.84;;;12.23;88.55
73651;BME280;61944;52.538;6.108;2023-05-20T02:24:06;102395.75;;;11.99;91.17
73651;BME280;61944;52.538;6.108;2023-05-20T02:26:33;102400.88;;;11.97;91.71
73651;BME280;61944;52.538;6.108;2023-05-20T02:28:58;102393.81;;;11.79;91.79
73651;BME280;61944;52.538;6.108;2023-05-20T02:31:24;102394.09;;;12.11;89.16
73651;BME280;61944;52.538;6.108;2023-05-20T02:33:50;102401.78;;;12.02;91.78
73651;BME280;61944;52.538;6.108;2023-05-20T02:36:15;102406.91;;;11.87;92.94
73651;BME280;61944;52.538;6.108;2023-05-20T02:38:41;102392.91;;;11.87;91.38
73651;BME280;61944;52.538;6.108;2023-05-20T02:41:07;102384.94;;;12.02;89.94
73651;BME280;61944;52.538;6.108;2023-05-20T02:43:33;102404.13;;;12.12;89.79
73651;BME280;61944;52.538;6.108;2023-05-20T02:45:58;102398.75;;;12.07;89.85
73651;BME280;61944;52.538;6.108;2023-05-20T02:48:24;102387.75;;;12.14;89.91
73651;BME280;61944;52.538;6.108;2023-05-20T02:50:50;102377.00;;;12.28;88.94
73651;BME280;61944;52.538;6.108;2023-05-20T02:53:17;102394.56;;;12.25;89.50
73651;BME280;61944;52.538;6.108;2023-05-20T02:55:45;102394.06;;;12.35;88.20
73651;BME280;61944;52.538;6.108;2023-05-20T02:58:11;102384.22;;;12.41;86.60
73651;BME280;61944;52.538;6.108;2023-05-20T03:00:38;102387.53;;;12.31;88.38
73651;BME280;61944;52.538;6.108;2023-05-20T03:03:08;102380.03;;;12.23;90.34
73651;BME280;61944;52.538;6.108;2023-05-20T03:05:37;102384.13;;;12.01;93.06
73651;BME280;61944;52.538;6.108;2023-05-20T03:08:10;102379.72;;;12.12;89.86
73651;BME280;61944;52.538;6.108;2023-05-20T03:10:37;102384.47;;;12.24;89.82
73651;BME280;61944;52.538;6.108;2023-05-20T03:13:07;102370.22;;;11.92;93.92
73651;BME280;61944;52.538;6.108;2023-05-20T03:15:37;102383.28;;;11.76;94.32
73651;BME280;61944;52.538;6.108;2023-05-20T03:18:03;102380.47;;;11.76;95.97
73651;BME280;61944;52.538;6.108;2023-05-20T03:20:29;102383.34;;;12.00;92.91
73651;BME280;61944;52.538;6.108;2023-05-20T03:22:57;102381.13;;;12.06;90.89
73651;BME280;61944;52.538;6.108;2023-05-20T03:25:23;102380.53;;;12.13;91.89
73651;BME280;61944;52.538;6.108;2023-05-20T03:27:49;102377.47;;;12.18;92.27
73651;BME280;61944;52.538;6.108;2023-05-20T03:30:14;102385.88;;;12.06;93.19
73651;BME280;61944;52.538;6.108;2023-05-20T03:32:40;102377.03;;;11.91;94.99
73651;BME280;61944;52.538;6.108;2023-05-20T03:35:06;102384.47;;;11.87;94.40
73651;BME280;61944;52.538;6.108;2023-05-20T03:37:32;102389.53;;;11.94;94.13
73651;BME280;61944;52.538;6.108;2023-05-20T03:39:58;102368.31;;;11.84;94.06
73651;BME280;61944;52.538;6.108;2023-05-20T03:42:23;102392.00;;;11.95;94.54
73651;BME280;61944;52.538;6.108;2023-05-20T03:44:48;102394.28;;;11.81;96.52
73651;BME280;61944;52.538;6.108;2023-05-20T03:47:14;102376.06;;;11.75;96.91
73651;BME280;61944;52.538;6.108;2023-05-20T03:49:39;102387.63;;;11.73;97.08
73651;BME280;61944;52.538;6.108;2023-05-20T03:52:08;102381.06;;;11.82;94.59
73651;BME280;61944;52.538;6.108;2023-05-20T03:54:33;102373.25;;;11.87;94.43
73651;BME280;61944;52.538;6.108;2023-05-20T03:57:00;102380.72;;;11.71;95.22
73651;BME280;61944;52.538;6.108;2023-05-20T03:59:27;102395.28;;;11.97;94.23
73651;BME280;61944;52.538;6.108;2023-05-20T04:01:52;102399.22;;;11.96;95.22
73651;BME280;61944;52.538;6.108;2023-05-20T04:04:18;102387.53;;;12.07;94.33
73651;BME280;61944;52.538;6.108;2023-05-20T04:06:43;102398.25;;;11.80;97.37
73651;BME280;61944;52.538;6.108;2023-05-20T04:09:09;102403.84;;;11.80;96.69
73651;BME280;61944;52.538;6.108;2023-05-20T04:11:35;102392.47;;;11.97;94.48
73651;BME280;61944;52.538;6.108;2023-05-20T04:14:00;102389.53;;;11.94;94.26
73651;BME280;61944;52.538;6.108;2023-05-20T04:16:26;102399.56;;;12.07;93.30
73651;BME280;61944;52.538;6.108;2023-05-20T04:18:51;102407.66;;;12.09;94.93
73651;BME280;61944;52.538;6.108;2023-05-20T04:21:17;102409.53;;;12.17;93.62
73651;BME280;61944;52.538;6.108;2023-05-20T04:23:43;102412.09;;;12.22;92.02
73651;BME280;61944;52.538;6.108;2023-05-20T04:26:12;102400.97;;;12.01;94.80
73651;BME280;61944;52.538;6.108;2023-05-20T04:28:37;102398.75;;;12.07;96.43
73651;BME280;61944;52.538;6.108;2023-05-20T04:31:03;102393.03;;;12.03;93.80
73651;BME280;61944;52.538;6.108;2023-05-20T04:33:29;102381.34;;;12.01;95.51
73651;BME280;61944;52.538;6.108;2023-05-20T04:35:57;102399.22;;;12.09;93.95
73651;BME280;61944;52.538;6.108;2023-05-20T04:38:23;102398.31;;;12.05;95.91
73651;BME280;61944;52.538;6.108;2023-05-20T04:40:54;102402.16;;;12.00;94.56
73651;BME280;61944;52.538;6.108;2023-05-20T04:43:22;102395.50;;;12.05;93.95
73651;BME280;61944;52.538;6.108;2023-05-20T04:45:48;102397.13;;;12.06;93.07
73651;BME280;61944;52.538;6.108;2023-05-20T04:48:14;102397.50;;;12.16;93.44
73651;BME280;61944;52.538;6.108;2023-05-20T04:50:39;102388.13;;;12.00;95.97
73651;BME280;61944;52.538;6.108;2023-05-20T04:53:06;102395.03;;;12.03;97.26
73651;BME280;61944;52.538;6.108;2023-05-20T04:55:32;102404.84;;;12.21;93.12
73651;BME280;61944;52.538;6.108;2023-05-20T04:57:57;102402.97;;;12.00;95.46
73651;BME280;61944;52.538;6.108;2023-05-20T05:00:22;102400.16;;;12.00;95.13
73651;BME280;61944;52.538;6.108;2023-05-20T05:02:48;102402.38;;;11.95;96.23
73651;BME280;61944;52.538;6.108;2023-05-20T05:05:13;102403.91;;;11.92;97.22
73651;BME280;61944;52.538;6.108;2023-05-20T05:07:39;102391.94;;;11.83;97.78
73651;BME280;61944;52.538;6.108;2023-05-20T05:10:07;102400.38;;;11.83;95.57
73651;BME280;61944;52.538;6.108;2023-05-20T05:12:33;102406.91;;;11.87;96.28
73651;BME280;61944;52.538;6.108;2023-05-20T05:15:01;102402.81;;;11.85;96.27
73651;BME280;61944;52.538;6.108;2023-05-20T05:17:27;102399.56;;;11.95;96.87
73651;BME280;61944;52.538;6.108;2023-05-20T05:19:52;102405.06;;;12.04;96.36
73651;BME280;61944;52.538;6.108;2023-05-20T05:22:18;102393.41;;;11.89;95.78
73651;BME280;61944;52.538;6.108;2023-05-20T05:24:43;102400.88;;;11.97;96.29
73651;BME280;61944;52.538;6.108;2023-05-20T05:27:09;102405.06;;;12.04;97.30
73651;BME280;61944;52.538;6.108;2023-05-20T05:29:34;102408.25;;;12.02;97.46
73651;BME280;61944;52.538;6.108;2023-05-20T05:31:59;102390.47;;;11.98;96.23
73651;BME280;61944;52.538;6.108;2023-05-20T05:34:25;102405.31;;;11.98;97.04
73651;BME280;61944;52.538;6.108;2023-05-20T05:36:50;102400.50;;;12.11;95.26
73651;BME280;61944;52.538;6.108;2023-05-20T05:39:16;102392.69;;;12.17;96.58
73651;BME280;61944;52.538;6.108;2023-05-20T05:41:41;102395.38;;;12.01;95.87
73651;BME280;61944;52.538;6.108;2023-05-20T05:44:06;102399.91;;;12.18;97.19
73651;BME280;61944;52.538;6.108;2023-05-20T05:46:32;102393.16;;;12.07;93.45
73651;BME280;61944;52.538;6.108;2023-05-20T05:48:57;102392.34;;;12.18;94.99
73651;BME280;61944;52.538;6.108;2023-05-20T05:51:23;102394.31;;;12.30;93.60
73651;BME280;61944;52.538;6.108;2023-05-20T05:53:49;102377.22;;;12.35;93.76
73651;BME280;61944;52.538;6.108;2023-05-20T05:56:15;102376.84;;;12.37;93.12
73651;BME280;61944;52.538;6.108;2023-05-20T05:58:40;102400.50;;;12.36;92.72
73651;BME280;61944;52.538;6.108;2023-05-20T06:01:06;102397.31;;;12.37;93.73
73651;BME280;61944;52.538;6.108;2023-05-20T06:03:31;102405.75;;;12.37;93.73
73651;BME280;61944;52.538;6.108;2023-05-20T06:05:56;102407.38;;;12.51;93.15
73651;BME280;61944;52.538;6.108;2023-05-20T06:08:22;102386.06;;;12.50;90.58
73651;BME280;61944;52.538;6.108;2023-05-20T06:10:48;102415.31;;;12.61;91.63
73651;BME280;61944;52.538;6.108;2023-05-20T06:13:14;102402.66;;;12.67;91.72
73651;BME280;61944;52.538;6.108;2023-05-20T06:15:39;102400.81;;;12.59;89.66
73651;BME280;61944;52.538;6.108;2023-05-20T06:18:05;102397.28;;;12.62;91.12
73651;BME280;61944;52.538;6.108;2023-05-20T06:20:30;102399.13;;;12.70;89.74
73651;BME280;61944;52.538;6.108;2023-05-20T06:22:56;102420.38;;;12.84;88.12
73651;BME280;61944;52.538;6.108;2023-05-20T06:25:21;102409.16;;;12.84;88.00
73651;BME280;61944;52.538;6.108;2023-05-20T06:27:47;102411.47;;;12.94;87.89
73651;BME280;61944;52.538;6.108;2023-05-20T06:30:13;102401.41;;;12.93;90.14
73651;BME280;61944;52.538;6.108;2023-05-20T06:32:38;102404.88;;;13.02;88.85
73651;BME280;61944;52.538;6.108;2023-05-20T06:35:04;102402.34;;;12.97;87.10
73651;BME280;61944;52.538;6.108;2023-05-20T06:37:29;102406.41;;;12.99;86.68
73651;BME280;61944;52.538;6.108;2023-05-20T06:39:55;102392.31;;;13.12;87.13
73651;BME280;61944;52.538;6.108;2023-05-20T06:42:20;102398.84;;;13.16;87.27
73651;BME280;61944;52.538;6.108;2023-05-20T06:44:45;102390.25;;;13.25;86.66
73651;BME280;61944;52.538;6.108;2023-05-20T06:47:13;102402.09;;;13.46;85.82
73651;BME280;61944;52.538;6.108;2023-05-20T06:49:38;102376.50;;;13.51;85.01
73651;BME280;61944;52.538;6.108;2023-05-20T06:52:04;102391.13;;;13.57;84.42
73651;BME280;61944;52.538;6.108;2023-05-20T06:54:30;102399.94;;;13.55;83.89
73651;BME280;61944;52.538;6.108;2023-05-20T06:56:58;102388.16;;;13.66;83.57
73651;BME280;61944;52.538;6.108;2023-05-20T06:59:24;102398.16;;;13.79;82.72
73651;BME280;61944;52.538;6.108;2023-05-20T07:01:49;102389.00;;;13.66;84.70
73651;BME280;61944;52.538;6.108;2023-05-20T07:04:14;102381.97;;;13.76;84.28
73651;BME280;61944;52.538;6.108;2023-05-20T07:06:40;102377.34;;;13.83;83.22
73651;BME280;61944;52.538;6.108;2023-05-20T07:09:05;102381.34;;;13.98;83.77
73651;BME280;61944;52.538;6.108;2023-05-20T07:11:31;102362.78;;;14.13;81.88
73651;BME280;61944;52.538;6.108;2023-05-20T07:13:56;102363.19;;;14.31;81.05
73651;BME280;61944;52.538;6.108;2023-05-20T07:16:21;102360.31;;;14.12;83.20
73651;BME280;61944;52.538;6.108;2023-05-20T07:18:47;102378.56;;;14.18;81.23
73651;BME280;61944;52.538;6.108;2023-05-20T07:21:12;102381.63;;;14.29;80.56
73651;BME280;61944;52.538;6.108;2023-05-20T07:23:37;102374.88;;;14.49;80.87
73651;BME280;61944;52.538;6.108;2023-05-20T07:26:03;102372.72;;;14.42;79.02
73651;BME280;61944;52.538;6.108;2023-05-20T07:28:28;102366.59;;;14.56;78.77
73651;BME280;61944;52.538;6.108;2023-05-20T07:30:54;102369.84;;;14.58;78.54
73651;BME280;61944;52.538;6.108;2023-05-20T07:33:21;102366.94;;;14.55;78.86
73651;BME280;61944;52.538;6.108;2023-05-20T07:35:46;102361.63;;;15.08;76.83
73651;BME280;61944;52.538;6.108;2023-05-20T07:38:11;102367.25;;;15.08;77.13
73651;BME280;61944;52.538;6.108;2023-05-20T07:40:38;102352.78;;;15.10;74.25
73651;BME280;61944;52.538;6.108;2023-05-20T07:43:06;102356.88;;;15.12;75.89
73651;BME280;61944;52.538;6.108;2023-05-20T07:45:33;102355.06;;;15.23;79.17
73651;BME280;61944;52.538;6.108;2023-05-20T07:47:59;102359.25;;;15.10;77.29
73651;BME280;61944;52.538;6.108;2023-05-20T07:50:25;102352.50;;;15.38;74.49
73651;BME280;61944;52.538;6.108;2023-05-20T07:52:50;102355.59;;;15.52;74.03
73651;BME280;61944;52.538;6.108;2023-05-20T07:55:16;102359.59;;;15.74;74.53
73651;BME280;61944;52.538;6.108;2023-05-20T07:57:42;102345.63;;;15.58;72.60
73651;BME280;61944;52.538;6.108;2023-05-20T08:00:08;102343.06;;;15.99;73.10
73651;BME280;61944;52.538;6.108;2023-05-20T08:02:34;102331.94;;;15.60;77.84
73651;BME280;61944;52.538;6.108;2023-05-20T08:04:59;102343.84;;;15.96;72.55
73651;BME280;61944;52.538;6.108;2023-05-20T08:07:24;102348.88;;;15.83;70.67
73651;BME280;61944;52.538;6.108;2023-05-20T08:09:50;102344.81;;;16.08;70.98
73651;BME280;61944;52.538;6.108;2023-05-20T08:12:15;102347.88;;;16.82;68.10
73651;BME280;61944;52.538;6.108;2023-05-20T08:14:41;102341.66;;;16.13;71.91
73651;BME280;61944;52.538;6.108;2023-05-20T08:17:07;102326.28;;;16.10;71.68
73651;BME280;61944;52.538;6.108;2023-05-20T08:19:32;102325.53;;;16.13;68.07
73651;BME280;61944;52.538;6.108;2023-05-20T08:21:58;102340.16;;;15.92;72.71
73651;BME280;61944;52.538;6.108;2023-05-20T08:24:23;102322.63;;;16.36;66.87
73651;BME280;61944;52.538;6.108;2023-05-20T08:26:49;102326.31;;;16.40;69.48
73651;BME280;61944;52.538;6.108;2023-05-20T08:29:14;102336.28;;;16.31;70.48
73651;BME280;61944;52.538;6.108;2023-05-20T08:31:39;102319.09;;;16.77;68.86
73651;BME280;61944;52.538;6.108;2023-05-20T08:34:05;102319.13;;;17.14;65.17
73651;BME280;61944;52.538;6.108;2023-05-20T08:36:30;102310.75;;;16.88;65.89
73651;BME280;61944;52.538;6.108;2023-05-20T08:38:56;102328.31;;;17.04;67.24
73651;BME280;61944;52.538;6.108;2023-05-20T08:41:21;102327.88;;;17.39;63.98
73651;BME280;61944;52.538;6.108;2023-05-20T08:43:47;102330.28;;;17.41;64.15
73651;BME280;61944;52.538;6.108;2023-05-20T08:46:14;102321.13;;;17.14;65.28
73651;BME280;61944;52.538;6.108;2023-05-20T08:48:40;102326.78;;;17.10;63.20
73651;BME280;61944;52.538;6.108;2023-05-20T08:51:08;102328.81;;;17.54;61.13
73651;BME280;61944;52.538;6.108;2023-05-20T08:53:33;102323.88;;;17.47;62.63
73651;BME280;61944;52.538;6.108;2023-05-20T08:56:02;102327.00;;;17.80;61.12
73651;BME280;61944;52.538;6.108;2023-05-20T08:58:30;102311.03;;;17.57;63.08
73651;BME280;61944;52.538;6.108;2023-05-20T09:00:57;102326.88;;;17.65;63.72
73651;BME280;61944;52.538;6.108;2023-05-20T09:03:26;102324.88;;;18.25;60.67
73651;BME280;61944;52.538;6.108;2023-05-20T09:05:52;102314.56;;;17.88;61.12
73651;BME280;61944;52.538;6.108;2023-05-20T09:08:19;102320.78;;;17.63;61.94
73651;BME280;61944;52.538;6.108;2023-05-20T09:10:50;102312.97;;;17.94;62.73
73651;BME280;61944;52.538;6.108;2023-05-20T09:13:16;102304.28;;;18.28;60.28
73651;BME280;61944;52.538;6.108;2023-05-20T09:15:41;102312.31;;;18.19;61.26
73651;BME280;61944;52.538;6.108;2023-05-20T09:18:07;102316.31;;;17.62;60.93
73651;BME280;61944;52.538;6.108;2023-05-20T09:20:34;102309.59;;;17.78;57.60
73651;BME280;61944;52.538;6.108;2023-05-20T09:23:03;102300.47;;;18.02;60.75
73651;BME280;61944;52.538;6.108;2023-05-20T09:25:28;102290.94;;;18.39;59.27
73651;BME280;61944;52.538;6.108;2023-05-20T09:27:54;102307.53;;;18.37;57.33
73651;BME280;61944;52.538;6.108;2023-05-20T09:30:20;102295.34;;;18.26;55.49
73651;BME280;61944;52.538;6.108;2023-05-20T09:32:57;102294.28;;;18.63;55.57
73651;BME280;61944;52.538;6.108;2023-05-20T09:35:24;102299.56;;;18.72;56.66
73651;BME280;61944;52.538;6.108;2023-05-20T09:37:55;102291.56;;;18.92;58.18
73651;BME280;61944;52.538;6.108;2023-05-20T09:40:25;102281.69;;;18.57;57.47
73651;BME280;61944;52.538;6.108;2023-05-20T09:42:53;102294.88;;;19.26;56.33
73651;BME280;61944;52.538;6.108;2023-05-20T09:45:20;102277.72;;;18.76;54.41
73651;BME280;61944;52.538;6.108;2023-05-20T09:47:49;102266.25;;;18.36;57.01
73651;BME280;61944;52.538;6.108;2023-05-20T09:50:15;102278.84;;;18.49;57.94
73651;BME280;61944;52.538;6.108;2023-05-20T09:52:42;102274.19;;;19.04;53.45
73651;BME280;61944;52.538;6.108;2023-05-20T09:55:08;102270.88;;;18.87;53.70
73651;BME280;61944;52.538;6.108;2023-05-20T09:57:37;102271.22;;;18.75;54.87
73651;BME280;61944;52.538;6.108;2023-05-20T10:00:04;102269.66;;;18.81;55.46
73651;BME280;61944;52.538;6.108;2023-05-20T10:02:30;102267.50;;;18.49;59.56
73651;BME280;61944;52.538;6.108;2023-05-20T10:04:57;102263.88;;;18.49;56.41
73651;BME280;61944;52.538;6.108;2023-05-20T10:12:39;102257.13;;;19.18;51.26
73651;BME280;61944;52.538;6.108;2023-05-20T10:15:23;102254.31;;;19.22;51.04
73651;BME280;61944;52.538;6.108;2023-05-20T10:20:25;102254.25;;;19.97;53.41
73651;BME280;61944;52.538;6.108;2023-05-20T10:22:57;102243.34;;;19.67;51.27
73651;BME280;61944;52.538;6.108;2023-05-20T10:25:24;102251.88;;;19.74;52.89
73651;BME280;61944;52.538;6.108;2023-05-20T10:27:50;102233.63;;;18.96;53.16
73651;BME280;61944;52.538;6.108;2023-05-20T10:30:20;102246.19;;;19.63;53.45
73651;BME280;61944;52.538;6.108;2023-05-20T10:32:56;102230.78;;;19.72;51.12
73651;BME280;61944;52.538;6.108;2023-05-20T10:35:23;102226.72;;;19.73;54.36
73651;BME280;61944;52.538;6.108;2023-05-20T10:37:53;102233.63;;;19.43;53.90
73651;BME280;61944;52.538;6.108;2023-05-20T10:40:20;102237.25;;;19.68;54.23
73651;BME280;61944;52.538;6.108;2023-05-20T10:42:46;102221.81;;;19.62;51.48
73651;BME280;61944;52.538;6.108;2023-05-20T10:45:23;102225.72;;;20.33;53.28
73651;BME280;61944;52.538;6.108;2023-05-20T10:47:54;102227.09;;;19.89;52.18
73651;BME280;61944;52.538;6.108;2023-05-20T10:50:32;102221.84;;;19.52;54.13
73651;BME280;61944;52.538;6.108;2023-05-20T10:53:04;102239.66;;;19.95;54.74
73651;BME280;61944;52.538;6.108;2023-05-20T10:55:40;102225.75;;;20.19;50.80
73651;BME280;61944;52.538;6.108;2023-05-20T10:58:05;102214.34;;;20.26;50.23
73651;BME280;61944;52.538;6.108;2023-05-20T11:00:35;102210.34;;;20.13;52.26
73651;BME280;61944;52.538;6.108;2023-05-20T11:03:01;102206.69;;;20.16;52.93
73651;BME280;61944;52.538;6.108;2023-05-20T11:05:27;102211.59;;;20.04;52.65
73651;BME280;61944;52.538;6.108;2023-05-20T11:08:01;102202.72;;;19.92;52.09
73651;BME280;61944;52.538;6.108;2023-05-20T11:10:26;102205.69;;;20.55;50.11
73651;BME280;61944;52.538;6.108;2023-05-20T11:12:52;102205.34;;;20.45;51.44
73651;BME280;61944;52.538;6.108;2023-05-20T11:15:17;102202.66;;;20.09;51.84
73651;BME280;61944;52.538;6.108;2023-05-20T11:18:03;102190.50;;;20.02;51.90
73651;BME280;61944;52.538;6.108;2023-05-20T11:20:29;102192.16;;;19.96;50.14
73651;BME280;61944;52.538;6.108;2023-05-20T11:22:55;102186.00;;;20.08;50.42
73651;BME280;61944;52.538;6.108;2023-05-20T11:25:21;102190.84;;;20.15;50.58
73651;BME280;61944;52.538;6.108;2023-05-20T11:27:50;102183.66;;;19.88;52.47
73651;BME280;61944;52.538;6.108;2023-05-20T11:30:16;102173.94;;;19.82;53.12
73651;BME280;61944;52.538;6.108;2023-05-20T11:32:58;102181.91;;;20.16;52.10
73651;BME280;61944;52.538;6.108;2023-05-20T11:35:25;102173.91;;;19.89;52.15
73651;BME280;61944;52.538;6.108;2023-05-20T11:37:57;102177.19;;;19.81;55.65
73651;BME280;61944;52.538;6.108;2023-05-20T11:40:26;102175.19;;;19.74;51.84
73651;BME280;61944;52.538;6.108;2023-05-20T11:42:59;102162.94;;;19.92;51.11
73651;BME280;61944;52.538;6.108;2023-05-20T11:45:24;102167.84;;;19.80;52.03
73651;BME280;61944;52.538;6.108;2023-05-20T11:48:02;102169.81;;;20.01;50.96
73651;BME280;61944;52.538;6.108;2023-05-20T11:50:33;102167.59;;;20.34;49.83
73651;BME280;61944;52.538;6.108;2023-05-20T11:53:01;102170.59;;;20.02;51.72
73651;BME280;61944;52.538;6.108;2023-05-20T11:55:27;102156.09;;;19.82;50.61
73651;BME280;61944;52.538;6.108;2023-05-20T11:57:54;102151.94;;;20.01;53.59
73651;BME280;61944;52.538;6.108;2023-05-20T12:00:22;102155.69;;;20.61;48.87
73651;BME280;61944;52.538;6.108;2023-05-20T12:02:47;102156.28;;;20.90;49.85
73651;BME280;61944;52.538;6.108;2023-05-20T12:05:12;102160.28;;;20.37;50.41
73651;BME280;61944;52.538;6.108;2023-05-20T12:07:38;102153.84;;;20.88;49.15
73651;BME280;61944;52.538;6.108;2023-05-20T12:10:04;102147.78;;;21.31;48.18
73651;BME280;61944;52.538;6.108;2023-05-20T12:12:29;102144.38;;;21.47;46.91
73651;BME280;61944;52.538;6.108;2023-05-20T12:14:55;102138.03;;;21.70;47.95
73651;BME280;61944;52.538;6.108;2023-05-20T12:17:21;102142.88;;;20.90;47.24
73651;BME280;61944;52.538;6.108;2023-05-20T12:19:46;102140.91;;;20.80;48.29
73651;BME280;61944;52.538;6.108;2023-05-20T12:22:11;102125.38;;;20.92;47.11
73651;BME280;61944;52.538;6.108;2023-05-20T12:24:37;102129.72;;;20.51;47.46
73651;BME280;61944;52.538;6.108;2023-05-20T12:27:02;102135.81;;;20.50;48.15
73651;BME280;61944;52.538;6.108;2023-05-20T12:29:34;102132.94;;;20.61;49.73
73651;BME280;61944;52.538;6.108;2023-05-20T12:31:59;102132.97;;;20.54;50.28
73651;BME280;61944;52.538;6.108;2023-05-20T12:34:25;102127.22;;;20.64;47.34
73651;BME280;61944;52.538;6.108;2023-05-20T12:36:50;102122.69;;;21.19;47.92
73651;BME280;61944;52.538;6.108;2023-05-20T12:39:17;102121.22;;;21.80;45.47
73651;BME280;61944;52.538;6.108;2023-05-20T12:41:44;102113.88;;;21.82;43.63
73651;BME280;61944;52.538;6.108;2023-05-20T12:44:09;102107.78;;;22.11;43.61
73651;BME280;61944;52.538;6.108;2023-05-20T12:46:35;102106.59;;;22.39;43.07
73651;BME280;61944;52.538;6.108;2023-05-20T12:49:01;102106.31;;;21.99;44.16
73651;BME280;61944;52.538;6.108;2023-05-20T12:51:27;102117.25;;;21.74;44.72
73651;BME280;61944;52.538;6.108;2023-05-20T12:53:52;102109.94;;;22.03;44.30